Time;durP1;ratioP1;P1;durP2;ratioP2;P2;SDS_P1;SDS_P2;PMS_P1;PMS_P2;Temp;Humidity;BMP_temperature;BMP_pressure;BME280_temperature;BME280_humidity;BME280_pressure;Samples;Min_cycle;Max_cycle;Signal;HPM_P1;HPM_P2
2023/02/01 00:00:57;;;;;;;9.82;4.00;;;;;;;;;;5018103;28;20108;-52
2023/02/01 00:03:24;;;;;;;10.07;4.57;;;;;;;;;;5017631;28;20057;-55
2023/02/01 00:05:56;;;;;;;11.25;4.45;;;;;;;;;;5007589;28;20050;-52
2023/02/01 00:08:23;;;;;;;8.75;3.88;;;;;;;;;;5017865;28;20072;-56
2023/02/01 00:10:58;;;;;;;11.45;4.32;;;;;;;;;;5017692;28;20419;-54
2023/02/01 00:13:28;;;;;;;8.48;4.10;;;;;;;;;;5017687;28;20562;-54
2023/02/01 00:15:55;;;;;;;10.52;4.72;;;;;;;;;;5018229;28;20087;-53
2023/02/01 00:18:21;;;;;;;7.60;4.03;;;;;;;;;;5032114;28;20255;-52
2023/02/01 00:20:48;;;;;;;7.97;3.85;;;;;;;;;;5034664;28;20045;-56
2023/02/01 00:23:15;;;;;;;12.52;4.18;;;;;;;;;;5034688;28;20050;-55
2023/02/01 00:25:42;;;;;;;9.93;4.15;;;;;;;;;;5034547;28;20049;-56
2023/02/01 00:28:08;;;;;;;10.38;4.35;;;;;;;;;;5032328;28;20144;-55
2023/02/01 00:30:37;;;;;;;8.90;3.88;;;;;;;;;;5034351;28;20045;-56
2023/02/01 00:33:03;;;;;;;10.02;4.22;;;;;;;;;;5034180;28;20049;-50
2023/02/01 00:35:30;;;;;;;9.63;4.22;;;;;;;;;;5034218;28;20050;-53
2023/02/01 00:37:58;;;;;;;11.05;4.45;;;;;;;;;;5032656;28;20544;-54
2023/02/01 00:40:25;;;;;;;8.70;3.88;;;;;;;;;;5033759;28;20060;-56
2023/02/01 00:42:53;;;;;;;7.43;3.80;;;;;;;;;;5033926;28;20419;-56
2023/02/01 00:45:20;;;;;;;11.60;4.50;;;;;;;;;;5034085;28;20076;-54
2023/02/01 00:47:48;;;;;;;9.40;5.03;;;;;;;;;;5032060;28;20465;-54
2023/02/01 00:50:16;;;;;;;9.77;4.50;;;;;;;;;;5033433;28;20077;-55
2023/02/01 00:52:43;;;;;;;10.23;4.95;;;;;;;;;;5033894;28;20045;-55
2023/02/01 00:55:10;;;;;;;11.32;5.28;;;;;;;;;;5033833;28;20053;-54
2023/02/01 00:57:36;;;;;;;11.10;4.75;;;;;;;;;;5030521;28;20042;-55
2023/02/01 01:00:04;;;;;;;9.77;5.07;;;;;;;;;;5014676;28;20120;-51
2023/02/01 01:02:31;;;;;;;9.15;4.97;;;;;;;;;;5014178;28;20096;-56
2023/02/01 01:04:59;;;;;;;10.77;4.55;;;;;;;;;;5011049;28;20046;-51
2023/02/01 01:07:26;;;;;;;9.88;4.70;;;;;;;;;;5007067;28;20050;-50
2023/02/01 01:09:52;;;;;;;10.00;4.82;;;;;;;;;;5013935;28;20053;-54
2023/02/01 01:12:19;;;;;;;11.10;5.15;;;;;;;;;;5013430;28;20046;-50
2023/02/01 01:14:46;;;;;;;10.60;5.68;;;;;;;;;;5013508;28;20503;-53
2023/02/01 01:17:13;;;;;;;10.85;4.97;;;;;;;;;;5014101;28;20046;-52
2023/02/01 01:19:39;;;;;;;11.70;5.22;;;;;;;;;;5013338;28;20057;-55
2023/02/01 01:22:08;;;;;;;14.00;5.75;;;;;;;;;;5013418;28;20057;-53
2023/02/01 01:24:34;;;;;;;12.70;6.13;;;;;;;;;;5013578;28;20054;-56
2023/02/01 01:27:01;;;;;;;10.80;4.97;;;;;;;;;;5014099;28;20103;-55
2023/02/01 01:29:28;;;;;;;11.73;4.80;;;;;;;;;;5012246;28;20054;-48
2023/02/01 01:31:55;;;;;;;13.90;6.65;;;;;;;;;;5013250;28;20180;-48
2023/02/01 01:34:22;;;;;;;12.82;5.05;;;;;;;;;;5013589;28;20050;-48
2023/02/01 01:36:48;;;;;;;12.68;5.90;;;;;;;;;;5014424;28;20042;-47
2023/02/01 01:39:16;;;;;;;12.63;6.05;;;;;;;;;;5013538;28;20053;-47
2023/02/01 01:41:43;;;;;;;12.05;5.45;;;;;;;;;;5012851;28;20057;-51
2023/02/01 01:44:43;;;;;;;14.60;6.72;;;;;;;;;;5013292;28;20050;-47
2023/02/01 01:47:10;;;;;;;12.35;5.57;;;;;;;;;;5014290;28;20137;-48
2023/02/01 01:49:38;;;;;;;12.23;6.03;;;;;;;;;;5013465;28;20466;-49
2023/02/01 01:52:06;;;;;;;16.67;6.38;;;;;;;;;;5012743;28;20053;-48
2023/02/01 01:54:38;;;;;;;14.52;5.95;;;;;;;;;;5013200;28;20057;-48
2023/02/01 01:57:10;;;;;;;13.35;6.72;;;;;;;;;;5013032;28;20056;-46
2023/02/01 01:59:38;;;;;;;13.35;6.43;;;;;;;;;;5012946;28;20053;-48
2023/02/01 02:02:05;;;;;;;13.20;6.90;;;;;;;;;;5013613;28;20045;-51
2023/02/01 02:04:33;;;;;;;14.63;7.00;;;;;;;;;;5020343;28;20045;-47
2023/02/01 02:07:04;;;;;;;11.63;6.25;;;;;;;;;;4998872;28;20046;-47
2023/02/01 02:09:30;;;;;;;15.43;7.07;;;;;;;;;;5029676;28;20483;-47
2023/02/01 02:11:59;;;;;;;15.55;7.28;;;;;;;;;;5032223;28;20056;-48
2023/02/01 02:14:27;;;;;;;14.27;6.72;;;;;;;;;;5021546;28;20108;-48
2023/02/01 02:17:07;;;;;;;14.57;7.10;;;;;;;;;;5029814;28;20491;-48
2023/02/01 02:20:09;;;;;;;13.52;6.72;;;;;;;;;;5032402;28;20053;-47
2023/02/01 02:23:17;;;;;;;15.00;7.43;;;;;;;;;;5032326;28;20510;-49
2023/02/01 02:26:19;;;;;;;15.05;6.05;;;;;;;;;;5021894;28;20038;-48
2023/02/01 02:29:20;;;;;;;12.88;7.00;;;;;;;;;;5032290;28;20041;-49
2023/02/01 02:32:14;;;;;;;13.95;7.00;;;;;;;;;;5028678;28;20502;-48
2023/02/01 02:34:47;;;;;;;15.43;7.13;;;;;;;;;;5030569;28;20064;-48
2023/02/01 02:37:24;;;;;;;13.85;6.75;;;;;;;;;;4992841;28;20071;-50
2023/02/01 02:40:00;;;;;;;17.52;7.20;;;;;;;;;;4992228;28;20046;-47
2023/02/01 02:48:15;;;;;;;14.05;6.50;;;;;;;;;;5032080;28;20064;-46
2023/02/01 03:04:45;;;;;;;13.07;6.47;;;;;;;;;;4949955;29;20527;-48
2023/02/01 03:07:16;;;;;;;13.77;5.85;;;;;;;;;;4980006;28;20053;-48
2023/02/01 03:09:48;;;;;;;10.20;5.70;;;;;;;;;;5011743;28;20510;-47
2023/02/01 03:15:06;;;;;;;17.60;7.22;;;;;;;;;;5012246;28;20057;-50
2023/02/01 03:17:36;;;;;;;12.80;5.93;;;;;;;;;;5012881;28;20050;-48
2023/02/01 03:20:05;;;;;;;13.52;6.32;;;;;;;;;;4992129;28;20047;-49
2023/02/01 03:22:35;;;;;;;11.18;5.90;;;;;;;;;;4991988;28;20058;-49
2023/02/01 03:25:08;;;;;;;13.90;5.73;;;;;;;;;;4992409;28;20112;-49
2023/02/01 03:27:38;;;;;;;12.50;5.82;;;;;;;;;;5000455;28;20045;-48
2023/02/01 03:30:10;;;;;;;10.32;5.20;;;;;;;;;;5012020;28;20133;-47
2023/02/01 03:35:28;;;;;;;10.20;5.72;;;;;;;;;;5011492;28;20054;-49
2023/02/01 03:38:04;;;;;;;13.38;6.07;;;;;;;;;;5026074;28;20064;-48
2023/02/01 03:40:36;;;;;;;11.07;5.50;;;;;;;;;;5031443;28;20506;-48
2023/02/01 03:43:08;;;;;;;9.98;5.47;;;;;;;;;;5031108;28;20557;-51
2023/02/01 03:45:40;;;;;;;10.23;5.65;;;;;;;;;;5031579;28;20466;-49
2023/02/01 03:48:08;;;;;;;11.43;5.53;;;;;;;;;;5015033;28;20100;-51
2023/02/01 03:50:38;;;;;;;9.77;4.68;;;;;;;;;;5011703;28;20416;-50
2023/02/01 03:53:09;;;;;;;11.43;5.57;;;;;;;;;;5014490;28;20172;-51
2023/02/01 03:55:36;;;;;;;12.82;5.82;;;;;;;;;;5015291;28;20049;-48
2023/02/01 03:58:08;;;;;;;12.43;5.15;;;;;;;;;;5016969;28;20077;-48
2023/02/01 04:00:34;;;;;;;11.20;5.75;;;;;;;;;;5015393;28;20050;-50
2023/02/01 04:03:03;;;;;;;12.20;5.50;;;;;;;;;;5014844;28;20049;-48
2023/02/01 04:05:30;;;;;;;11.90;5.38;;;;;;;;;;5007795;28;20054;-48
2023/02/01 04:07:57;;;;;;;12.30;5.53;;;;;;;;;;5026003;28;20594;-48
2023/02/01 04:10:26;;;;;;;11.43;5.43;;;;;;;;;;5035057;28;20115;-48
2023/02/01 04:12:53;;;;;;;11.05;5.68;;;;;;;;;;5034473;28;20049;-49
2023/02/01 04:15:19;;;;;;;10.25;4.85;;;;;;;;;;5035124;28;20468;-49
2023/02/01 04:17:46;;;;;;;12.05;4.93;;;;;;;;;;5021090;28;20045;-48
2023/02/01 04:20:13;;;;;;;10.13;5.13;;;;;;;;;;5015009;28;20096;-49
2023/02/01 04:22:40;;;;;;;10.57;5.50;;;;;;;;;;5014460;28;20100;-49
2023/02/01 04:25:08;;;;;;;10.35;5.38;;;;;;;;;;5014966;28;20054;-50
2023/02/01 04:27:36;;;;;;;10.57;5.13;;;;;;;;;;5015742;28;20050;-50
2023/02/01 04:30:03;;;;;;;12.15;5.60;;;;;;;;;;5014739;28;20058;-47
2023/02/01 04:32:30;;;;;;;10.95;5.28;;;;;;;;;;5014042;28;20092;-52
2023/02/01 04:34:57;;;;;;;11.43;5.60;;;;;;;;;;5014855;28;20136;-51
2023/02/01 04:37:24;;;;;;;17.40;6.32;;;;;;;;;;5015683;28;20507;-48
2023/02/01 04:39:50;;;;;;;9.02;5.25;;;;;;;;;;5014675;28;20581;-48
2023/02/01 04:42:17;;;;;;;12.82;5.88;;;;;;;;;;5014162;28;20377;-49
2023/02/01 04:44:45;;;;;;;12.00;6.45;;;;;;;;;;5014434;28;20724;-49
2023/02/01 04:47:12;;;;;;;12.00;5.45;;;;;;;;;;5022911;28;20049;-50
2023/02/01 04:49:39;;;;;;;11.85;5.82;;;;;;;;;;5034058;28;20486;-48
2023/02/01 04:52:05;;;;;;;13.13;6.03;;;;;;;;;;5033818;28;20502;-48
2023/02/01 04:54:32;;;;;;;10.82;5.38;;;;;;;;;;5034099;28;20058;-47
2023/02/01 04:56:59;;;;;;;13.05;5.68;;;;;;;;;;5027541;28;20132;-48
2023/02/01 04:59:28;;;;;;;10.90;5.38;;;;;;;;;;5014039;28;20461;-48
2023/02/01 05:01:56;;;;;;;12.30;5.68;;;;;;;;;;5014129;28;20527;-52
2023/02/01 05:04:22;;;;;;;16.23;6.35;;;;;;;;;;5013120;28;20104;-48
2023/02/01 05:06:49;;;;;;;10.73;6.22;;;;;;;;;;5008125;28;20049;-49
2023/02/01 05:09:16;;;;;;;13.90;6.10;;;;;;;;;;5034906;28;20517;-50
2023/02/01 05:14:27;;;;;;;15.23;6.47;;;;;;;;;;5034073;28;20057;-77
2023/02/01 05:16:53;;;;;;;14.73;6.88;;;;;;;;;;5033868;28;20405;-77
2023/02/01 05:19:21;;;;;;;14.13;6.72;;;;;;;;;;5034129;28;20073;-77
2023/02/01 05:21:48;;;;;;;13.55;6.28;;;;;;;;;;5033761;28;20045;-77
2023/02/01 05:24:19;;;;;;;15.48;7.30;;;;;;;;;;5033675;28;20041;-78
2023/02/01 05:26:46;;;;;;;12.38;6.53;;;;;;;;;;5033372;28;20038;-77
2023/02/01 05:29:13;;;;;;;12.38;6.15;;;;;;;;;;5034236;28;20064;-76
2023/02/01 05:31:41;;;;;;;12.30;6.15;;;;;;;;;;5033892;28;20105;-77
2023/02/01 05:34:08;;;;;;;14.30;7.07;;;;;;;;;;5034133;28;20684;-77
2023/02/01 05:36:36;;;;;;;15.63;7.47;;;;;;;;;;5033547;28;20041;-77
2023/02/01 05:39:03;;;;;;;12.98;7.18;;;;;;;;;;5033660;28;20041;-76
2023/02/01 05:41:30;;;;;;;12.45;6.78;;;;;;;;;;5033831;28;20048;-77
2023/02/01 05:43:57;;;;;;;13.70;6.75;;;;;;;;;;5033328;28;20640;-77
2023/02/01 05:46:23;;;;;;;13.15;6.30;;;;;;;;;;5034310;28;20137;-77
2023/02/01 05:48:50;;;;;;;13.35;6.65;;;;;;;;;;5035152;28;20100;-77
2023/02/01 05:51:17;;;;;;;10.65;5.57;;;;;;;;;;5034834;28;20132;-78
2023/02/01 05:53:47;;;;;;;12.68;5.75;;;;;;;;;;5034516;28;20045;-77
2023/02/01 05:56:14;;;;;;;12.15;6.88;;;;;;;;;;5034254;28;20072;-77
2023/02/01 05:58:40;;;;;;;13.95;6.88;;;;;;;;;;5033781;28;20571;-78
2023/02/01 06:01:07;;;;;;;13.85;6.50;;;;;;;;;;5034073;28;20077;-77
2023/02/01 06:03:34;;;;;;;12.65;5.95;;;;;;;;;;5034598;28;20129;-77
2023/02/01 06:06:01;;;;;;;11.32;5.90;;;;;;;;;;5034588;28;20053;-76
2023/02/01 06:08:28;;;;;;;15.13;7.00;;;;;;;;;;5015686;28;20042;-78
2023/02/01 06:11:00;;;;;;;11.32;5.85;;;;;;;;;;5013905;28;20049;-76
2023/02/01 06:13:26;;;;;;;12.75;5.80;;;;;;;;;;5013901;28;20129;-77
2023/02/01 06:15:53;;;;;;;13.75;6.13;;;;;;;;;;5012961;28;20073;-76
2023/02/01 06:18:20;;;;;;;11.57;6.20;;;;;;;;;;5012963;28;20071;-76
2023/02/01 06:20:53;;;;;;;12.25;6.38;;;;;;;;;;5012734;28;20046;-77
2023/02/01 06:23:23;;;;;;;13.70;7.10;;;;;;;;;;5012877;28;20058;-77
2023/02/01 06:25:50;;;;;;;15.73;6.77;;;;;;;;;;5012856;28;20050;-76
2023/02/01 06:28:18;;;;;;;11.50;5.78;;;;;;;;;;5030286;28;20100;-76
2023/02/01 06:30:45;;;;;;;12.57;5.78;;;;;;;;;;5032667;28;20052;-76
2023/02/01 06:33:12;;;;;;;12.00;5.63;;;;;;;;;;5032658;28;20049;-77
2023/02/01 06:35:39;;;;;;;11.95;5.68;;;;;;;;;;5032673;28;20051;-76
2023/02/01 06:38:06;;;;;;;14.15;6.00;;;;;;;;;;5033138;28;20041;-76
2023/02/01 06:40:32;;;;;;;13.88;6.35;;;;;;;;;;5033609;28;20111;-76
2023/02/01 06:42:59;;;;;;;12.48;6.18;;;;;;;;;;5032379;28;20050;-76
2023/02/01 06:45:27;;;;;;;15.63;6.20;;;;;;;;;;5033025;28;20045;-77
2023/02/01 06:48:00;;;;;;;16.15;7.05;;;;;;;;;;5040932;28;20045;-77
2023/02/01 06:50:27;;;;;;;10.98;6.15;;;;;;;;;;5043055;28;20049;-76
2023/02/01 06:52:53;;;;;;;14.77;6.43;;;;;;;;;;5035502;28;20049;-78
2023/02/01 06:55:20;;;;;;;12.40;5.72;;;;;;;;;;5032765;28;20141;-77
2023/02/01 06:57:47;;;;;;;11.43;5.60;;;;;;;;;;5032599;28;20045;-76
2023/02/01 07:00:14;;;;;;;10.82;5.57;;;;;;;;;;5032220;28;20136;-78
2023/02/01 07:02:42;;;;;;;10.15;5.10;;;;;;;;;;5031858;28;20049;-76
2023/02/01 07:05:10;;;;;;;10.50;5.38;;;;;;;;;;5031979;28;20041;-77
2023/02/01 07:07:36;;;;;;;13.18;5.72;;;;;;;;;;5031528;28;20133;-76
2023/02/01 07:10:03;;;;;;;11.93;5.68;;;;;;;;;;5031696;28;20049;-76
2023/02/01 07:12:30;;;;;;;11.02;5.95;;;;;;;;;;5036536;28;20133;-78
2023/02/01 07:14:57;;;;;;;14.05;5.45;;;;;;;;;;5034159;28;20084;-76
2023/02/01 07:17:24;;;;;;;10.75;5.90;;;;;;;;;;5031847;28;20046;-77
2023/02/01 07:19:51;;;;;;;11.93;5.75;;;;;;;;;;5031912;28;20076;-78
2023/02/01 07:22:18;;;;;;;10.23;4.97;;;;;;;;;;5031461;28;20497;-78
2023/02/01 07:24:45;;;;;;;12.00;4.97;;;;;;;;;;5032415;28;20069;-78
2023/02/01 07:27:11;;;;;;;11.35;6.00;;;;;;;;;;5034987;28;20092;-77
2023/02/01 07:29:38;;;;;;;9.02;5.28;;;;;;;;;;5036327;28;20053;-77
2023/02/01 07:32:05;;;;;;;9.93;4.95;;;;;;;;;;5036682;28;20419;-77
2023/02/01 07:34:32;;;;;;;11.68;5.10;;;;;;;;;;5032910;22;20510;-51
2023/02/01 07:37:00;;;;;;;9.55;4.75;;;;;;;;;;5017247;28;20062;-49
2023/02/01 07:39:28;;;;;;;12.20;4.85;;;;;;;;;;5016852;28;20045;-51
2023/02/01 07:41:56;;;;;;;10.65;5.45;;;;;;;;;;5018371;28;20491;-49
2023/02/01 07:44:23;;;;;;;10.63;4.57;;;;;;;;;;5016945;28;20137;-47
2023/02/01 07:46:50;;;;;;;9.65;4.65;;;;;;;;;;5016748;28;20145;-50
2023/02/01 07:49:18;;;;;;;11.23;4.72;;;;;;;;;;5016698;28;20053;-51
2023/02/01 07:51:45;;;;;;;10.98;5.07;;;;;;;;;;5016666;28;20113;-51
2023/02/01 07:54:14;;;;;;;9.50;4.78;;;;;;;;;;5015520;28;20423;-50
2023/02/01 07:56:41;;;;;;;11.32;4.88;;;;;;;;;;5016839;28;20054;-52
2023/02/01 07:59:08;;;;;;;8.50;4.15;;;;;;;;;;5016493;28;20117;-47
2023/02/01 08:01:33;;;;;;;12.18;4.22;;;;;;;;;;5015834;28;20050;-49
2023/02/01 08:04:02;;;;;;;11.10;4.63;;;;;;;;;;5016122;28;20049;-52
2023/02/01 08:06:31;;;;;;;8.10;4.03;;;;;;;;;;5012463;28;20037;-52
2023/02/01 08:08:59;;;;;;;9.13;4.10;;;;;;;;;;5015565;28;20144;-52
2023/02/01 08:11:33;;;;;;;8.68;4.82;;;;;;;;;;5015166;28;20468;-52
2023/02/01 08:14:00;;;;;;;7.32;3.95;;;;;;;;;;5013046;28;20905;-49
2023/02/01 08:16:27;;;;;;;8.32;3.67;;;;;;;;;;5013605;28;20081;-52
2023/02/01 08:18:54;;;;;;;8.68;4.05;;;;;;;;;;5014301;28;20054;-49
2023/02/01 08:21:23;;;;;;;9.00;3.83;;;;;;;;;;5013759;28;20053;-49
2023/02/01 08:23:50;;;;;;;8.65;3.70;;;;;;;;;;5013715;28;20069;-49
2023/02/01 08:26:19;;;;;;;8.30;3.42;;;;;;;;;;5014086;28;20101;-49
2023/02/01 08:28:50;;;;;;;9.90;4.25;;;;;;;;;;5014042;28;20050;-50
2023/02/01 08:31:21;;;;;;;13.45;5.72;;;;;;;;;;5013375;28;20596;-53
2023/02/01 08:33:50;;;;;;;9.50;3.80;;;;;;;;;;5013159;28;20049;-50
2023/02/01 08:36:18;;;;;;;9.25;4.30;;;;;;;;;;5013523;28;20471;-51
2023/02/01 08:38:45;;;;;;;8.23;3.80;;;;;;;;;;5011402;28;20520;-51
2023/02/01 08:41:14;;;;;;;9.02;3.75;;;;;;;;;;5013117;28;20167;-50
2023/02/01 08:43:42;;;;;;;6.75;3.92;;;;;;;;;;5012715;28;20455;-52
2023/02/01 08:46:11;;;;;;;8.23;3.65;;;;;;;;;;5013142;28;20058;-53
2023/02/01 08:48:38;;;;;;;7.28;3.78;;;;;;;;;;5012783;28;20046;-50
2023/02/01 08:51:07;;;;;;;10.07;4.10;;;;;;;;;;5012604;28;20107;-50
2023/02/01 08:53:34;;;;;;;10.73;4.13;;;;;;;;;;5013060;28;20100;-49
2023/02/01 08:56:01;;;;;;;7.93;3.67;;;;;;;;;;5013136;28;20046;-52
2023/02/01 08:58:28;;;;;;;10.25;3.67;;;;;;;;;;5012926;28;20058;-52
2023/02/01 09:00:55;;;;;;;9.05;4.00;;;;;;;;;;5012590;28;20184;-49
2023/02/01 09:03:23;;;;;;;8.93;4.35;;;;;;;;;;5011839;28;20050;-52
2023/02/01 09:05:50;;;;;;;8.40;3.60;;;;;;;;;;5012950;28;20056;-50
2023/02/01 09:08:18;;;;;;;9.73;4.10;;;;;;;;;;5012768;28;20474;-49
2023/02/01 09:10:45;;;;;;;8.25;3.97;;;;;;;;;;5018055;28;20054;-51
2023/02/01 09:13:12;;;;;;;9.05;3.83;;;;;;;;;;5031118;28;20076;-50
2023/02/01 09:15:39;;;;;;;8.15;4.10;;;;;;;;;;5013096;28;20045;-49
2023/02/01 09:18:05;;;;;;;7.35;3.95;;;;;;;;;;5012421;28;20050;-50
2023/02/01 09:20:34;;;;;;;8.25;3.60;;;;;;;;;;5012185;28;20220;-50
2023/02/01 09:23:00;;;;;;;9.57;3.65;;;;;;;;;;5012350;28;20061;-49
2023/02/01 09:25:28;;;;;;;7.68;3.90;;;;;;;;;;5013520;28;20413;-50
2023/02/01 09:27:55;;;;;;;8.40;3.92;;;;;;;;;;5012767;28;20054;-49
2023/02/01 09:30:22;;;;;;;6.45;3.40;;;;;;;;;;5012478;28;20053;-53
2023/02/01 09:32:48;;;;;;;6.00;3.17;;;;;;;;;;5030102;28;20077;-49
2023/02/01 09:35:15;;;;;;;7.05;3.20;;;;;;;;;;5032421;28;20485;-52
2023/02/01 09:37:44;;;;;;;7.00;3.38;;;;;;;;;;5017546;28;20521;-52
2023/02/01 09:40:14;;;;;;;6.43;3.20;;;;;;;;;;5012094;28;20069;-57
2023/02/01 09:42:53;;;;;;;;;;;;;;;;;;5012258;28;20517;-51
2023/02/01 09:45:28;;;;;;;8.32;3.60;;;;;;;;;;5008604;28;20326;-54
2023/02/01 09:47:58;;;;;;;8.18;3.58;;;;;;;;;;4992738;28;20046;-54
2023/02/01 09:50:34;;;;;;;8.82;4.05;;;;;;;;;;5005969;28;20054;-50
2023/02/01 09:53:06;;;;;;;8.20;4.18;;;;;;;;;;5011857;28;20049;-53
2023/02/01 09:55:39;;;;;;;7.32;3.90;;;;;;;;;;5011978;28;20052;-54
2023/02/01 09:58:09;;;;;;;9.98;4.22;;;;;;;;;;5011224;28;20050;-52
2023/02/01 10:00:39;;;;;;;8.65;4.53;;;;;;;;;;5012147;28;20046;-50
2023/02/01 10:03:06;;;;;;;9.68;3.85;;;;;;;;;;5011160;28;20046;-48
2023/02/01 10:05:50;;;;;;;8.45;4.07;;;;;;;;;;5003885;28;20097;-65
2023/02/01 10:08:28;;;;;;;8.73;3.95;;;;;;;;;;5009741;28;20049;-55
2023/02/01 10:10:59;;;;;;;8.10;4.03;;;;;;;;;;5011277;28;20414;-56
2023/02/01 10:13:46;;;;;;;11.75;4.25;;;;;;;;;;5011136;28;20104;-59
2023/02/01 10:16:23;;;;;;;7.53;3.50;;;;;;;;;;5011597;28;20100;-54
2023/02/01 10:19:15;;;;;;;13.70;4.55;;;;;;;;;;5011080;28;20046;-65
2023/02/01 10:21:52;;;;;;;8.35;3.70;;;;;;;;;;5011207;28;20050;-64
2023/02/01 10:24:46;;;;;;;7.70;3.70;;;;;;;;;;5011566;28;20104;-54
2023/02/01 10:27:17;;;;;;;10.27;3.90;;;;;;;;;;5009005;28;20491;-53
2023/02/01 10:29:46;;;;;;;8.50;3.88;;;;;;;;;;5011476;28;20057;-55
2023/02/01 10:32:16;;;;;;;8.27;4.03;;;;;;;;;;5010930;28;20054;-52
2023/02/01 10:34:45;;;;;;;8.88;4.22;;;;;;;;;;5011465;28;20046;-49
2023/02/01 10:37:21;;;;;;;8.10;4.10;;;;;;;;;;5011519;28;20112;-53
2023/02/01 10:39:50;;;;;;;8.63;4.13;;;;;;;;;;5011434;28;20096;-55
2023/02/01 10:42:19;;;;;;;10.25;4.55;;;;;;;;;;5010943;28;20077;-52
2023/02/01 10:44:47;;;;;;;8.10;3.80;;;;;;;;;;5011344;28;20050;-51
2023/02/01 10:47:15;;;;;;;11.07;4.00;;;;;;;;;;5011609;28;20419;-50
2023/02/01 10:49:50;;;;;;;9.52;3.78;;;;;;;;;;5011188;28;20049;-48
2023/02/01 10:52:34;;;;;;;10.10;3.90;;;;;;;;;;5010707;28;20057;-54
2023/02/01 10:55:32;;;;;;;8.15;3.67;;;;;;;;;;5017172;28;20049;-53
2023/02/01 10:58:01;;;;;;;7.40;3.60;;;;;;;;;;5005891;28;20161;-52
2023/02/01 11:00:28;;;;;;;9.35;3.33;;;;;;;;;;5011400;28;20107;-51
2023/02/01 11:02:56;;;;;;;9.15;4.20;;;;;;;;;;5005875;28;20081;-49
2023/02/01 11:05:23;;;;;;;9.00;4.50;;;;;;;;;;5011279;28;20319;-50
2023/02/01 11:07:53;;;;;;;10.20;4.35;;;;;;;;;;5009753;28;20069;-48
2023/02/01 11:10:40;;;;;;;7.72;3.67;;;;;;;;;;5010581;28;20056;-50
2023/02/01 11:13:16;;;;;;;8.57;3.95;;;;;;;;;;5009337;28;20054;-52
2023/02/01 11:15:45;;;;;;;8.43;4.35;;;;;;;;;;5010922;28;20045;-52
2023/02/01 11:18:18;;;;;;;8.65;4.32;;;;;;;;;;5010330;28;20049;-51
2023/02/01 11:20:49;;;;;;;7.55;4.03;;;;;;;;;;5010225;28;20054;-52
2023/02/01 11:23:18;;;;;;;11.73;4.55;;;;;;;;;;5010706;28;20116;-50
2023/02/01 11:25:53;;;;;;;9.38;4.10;;;;;;;;;;5011066;28;20050;-52
2023/02/01 11:28:23;;;;;;;7.30;3.50;;;;;;;;;;5007072;28;20058;-52
2023/02/01 11:30:52;;;;;;;7.40;3.87;;;;;;;;;;5017881;28;20042;-50
2023/02/01 11:33:23;;;;;;;9.07;4.07;;;;;;;;;;5019286;28;20286;-50
2023/02/01 11:35:50;;;;;;;6.80;3.92;;;;;;;;;;5012354;28;20053;-52
2023/02/01 11:38:23;;;;;;;9.57;4.10;;;;;;;;;;4990956;28;20058;-52
2023/02/01 11:40:51;;;;;;;12.05;4.00;;;;;;;;;;4991763;28;20478;-49
2023/02/01 11:43:24;;;;;;;7.50;3.88;;;;;;;;;;4991130;28;20054;-52
2023/02/01 11:45:56;;;;;;;12.52;4.50;;;;;;;;;;4996642;28;20117;-49
2023/02/01 11:48:25;;;;;;;9.27;4.07;;;;;;;;;;5009475;28;20046;-50
2023/02/01 11:51:03;;;;;;;9.38;3.58;;;;;;;;;;5010959;28;20054;-51
2023/02/01 11:53:42;;;;;;;7.07;3.50;;;;;;;;;;5010646;28;20511;-54
2023/02/01 11:56:22;;;;;;;10.95;4.95;;;;;;;;;;5011047;28;20124;-49
2023/02/01 11:59:11;;;;;;;7.43;4.50;;;;;;;;;;5009633;28;20570;-51
2023/02/01 12:01:51;;;;;;;10.80;5.15;;;;;;;;;;4990690;28;20069;-50
2023/02/01 12:04:40;;;;;;;13.02;4.95;;;;;;;;;;4990904;28;20077;-51
2023/02/01 12:07:15;;;;;;;8.88;4.70;;;;;;;;;;4999201;28;20041;-51
2023/02/01 12:09:54;;;;;;;11.93;5.20;;;;;;;;;;4991125;28;20527;-51
2023/02/01 12:12:29;;;;;;;15.98;4.97;;;;;;;;;;5003739;28;20481;-50
2023/02/01 12:15:20;;;;;;;11.65;4.65;;;;;;;;;;5013959;28;20053;-54
2023/02/01 12:18:00;;;;;;;13.32;5.20;;;;;;;;;;5014351;28;20448;-50
2023/02/01 12:20:43;;;;;;;14.23;5.07;;;;;;;;;;5014275;28;20502;-50
2023/02/01 12:23:27;;;;;;;12.50;5.50;;;;;;;;;;5013895;28;20057;-50
2023/02/01 12:26:06;;;;;;;12.23;4.95;;;;;;;;;;5013631;28;20057;-51
2023/02/01 12:28:55;;;;;;;11.18;5.30;;;;;;;;;;5014028;28;20057;-54
2023/02/01 12:31:44;;;;;;;14.40;5.90;;;;;;;;;;5013916;28;20053;-52
2023/02/01 12:34:30;;;;;;;8.60;4.70;;;;;;;;;;5013557;28;20049;-55
2023/02/01 12:37:06;;;;;;;12.38;5.55;;;;;;;;;;5013593;28;20049;-50
2023/02/01 12:39:39;;;;;;;10.35;5.20;;;;;;;;;;5013470;28;20112;-52
2023/02/01 12:42:15;;;;;;;11.07;4.85;;;;;;;;;;5012920;28;20046;-50
2023/02/01 12:44:51;;;;;;;12.43;5.38;;;;;;;;;;5012966;28;20523;-51
2023/02/01 12:47:23;;;;;;;15.07;5.15;;;;;;;;;;5013437;28;20049;-52
2023/02/01 12:49:56;;;;;;;10.98;4.82;;;;;;;;;;5013378;28;20473;-50
2023/02/01 12:52:33;;;;;;;9.45;4.63;;;;;;;;;;5013138;28;20113;-53
2023/02/01 12:55:04;;;;;;;13.70;5.13;;;;;;;;;;5013190;28;20338;-49
2023/02/01 12:57:33;;;;;;;12.25;5.07;;;;;;;;;;5013696;28;20046;-50
2023/02/01 13:00:21;;;;;;;13.88;5.10;;;;;;;;;;5013682;28;20259;-53
2023/02/01 13:02:55;;;;;;;9.98;5.07;;;;;;;;;;5013282;28;20045;-51
2023/02/01 13:05:24;;;;;;;13.10;4.68;;;;;;;;;;5013920;28;20053;-50
2023/02/01 13:07:54;;;;;;;10.52;4.43;;;;;;;;;;5013607;28;20046;-51
2023/02/01 13:10:29;;;;;;;8.93;4.80;;;;;;;;;;5013682;28;20053;-52
2023/02/01 13:13:03;;;;;;;9.30;4.20;;;;;;;;;;5012902;28;20478;-50
2023/02/01 13:15:37;;;;;;;9.13;4.20;;;;;;;;;;5012959;28;20065;-50
2023/02/01 13:18:09;;;;;;;9.23;3.92;;;;;;;;;;5012875;28;20053;-51
2023/02/01 13:20:43;;;;;;;9.15;4.40;;;;;;;;;;5013292;28;20152;-51
2023/02/01 13:23:19;;;;;;;7.65;4.03;;;;;;;;;;5012909;28;20049;-54
2023/02/01 13:25:50;;;;;;;10.73;4.93;;;;;;;;;;5012847;28;20065;-52
2023/02/01 13:28:23;;;;;;;9.05;4.50;;;;;;;;;;5013003;28;20426;-50
2023/02/01 13:31:06;;;;;;;12.65;4.63;;;;;;;;;;5013142;28;20388;-50
2023/02/01 13:34:00;;;;;;;8.07;4.38;;;;;;;;;;5012755;28;20053;-53
2023/02/01 13:36:54;;;;;;;11.13;4.47;;;;;;;;;;5009965;28;20049;-50
2023/02/01 13:40:08;;;;;;;11.25;5.03;;;;;;;;;;5012292;28;20049;-50
2023/02/01 13:42:48;;;;;;;8.32;4.05;;;;;;;;;;5012281;28;20049;-51
2023/02/01 13:45:17;;;;;;;8.23;4.77;;;;;;;;;;5012353;28;20050;-51
2023/02/01 13:47:49;;;;;;;7.22;4.15;;;;;;;;;;5012270;28;20057;-52
2023/02/01 13:50:24;;;;;;;11.43;4.82;;;;;;;;;;5012147;28;20049;-51
2023/02/01 13:52:55;;;;;;;10.75;4.50;;;;;;;;;;5012574;28;20054;-63
2023/02/01 13:55:27;;;;;;;;;;;;;;;;;;5010704;28;20535;-52
2023/02/01 13:58:04;;;;;;;12.15;5.68;;;;;;;;;;5006683;28;19921;-50
2023/02/01 14:00:33;;;;;;;9.40;5.18;;;;;;;;;;5007545;28;20061;-50
2023/02/01 14:03:15;;;;;;;8.15;4.43;;;;;;;;;;5009621;28;20064;-51
2023/02/01 14:06:04;;;;;;;11.40;4.93;;;;;;;;;;5009028;28;20108;-59
2023/02/01 14:09:22;;;;;;;13.60;6.60;;;;;;;;;;5011265;28;20054;-64
2023/02/01 14:11:51;;;;;;;10.73;4.97;;;;;;;;;;4944368;28;20544;-51
2023/02/01 14:14:45;;;;;;;11.15;5.00;;;;;;;;;;4998717;28;20085;-51
2023/02/01 14:17:37;;;;;;;8.90;4.72;;;;;;;;;;5012265;28;20116;-48
2023/02/01 14:20:45;;;;;;;7.95;4.50;;;;;;;;;;5012162;28;20049;-50
2023/02/01 14:23:34;;;;;;;10.05;4.40;;;;;;;;;;5010428;28;20124;-64
2023/02/01 14:26:20;;;;;;;8.52;4.63;;;;;;;;;;4999122;28;20058;-56
2023/02/01 14:29:10;;;;;;;10.73;5.05;;;;;;;;;;5009957;28;20050;-49
2023/02/01 14:31:49;;;;;;;12.05;4.65;;;;;;;;;;5005420;28;20566;-49
2023/02/01 14:34:21;;;;;;;11.88;5.20;;;;;;;;;;5011981;28;20064;-51
2023/02/01 14:36:53;;;;;;;8.73;4.03;;;;;;;;;;5012034;28;20438;-53
2023/02/01 14:39:47;;;;;;;9.77;4.10;;;;;;;;;;5012746;28;20455;-53
2023/02/01 14:42:23;;;;;;;9.65;4.20;;;;;;;;;;5011736;28;20319;-52
2023/02/01 14:44:50;;;;;;;7.22;3.80;;;;;;;;;;5012137;28;20061;-51
2023/02/01 14:47:33;;;;;;;10.45;4.13;;;;;;;;;;5012394;28;20074;-48
2023/02/01 14:50:33;;;;;;;7.78;3.78;;;;;;;;;;5011709;28;20054;-50
2023/02/01 14:53:13;;;;;;;7.72;4.05;;;;;;;;;;5012100;28;20050;-51
2023/02/01 14:55:43;;;;;;;9.50;4.03;;;;;;;;;;5011863;28;20052;-52
2023/02/01 14:58:19;;;;;;;8.68;3.65;;;;;;;;;;5011378;28;20279;-52
2023/02/01 15:00:53;;;;;;;10.80;4.30;;;;;;;;;;5011816;28;20070;-54
2023/02/01 15:03:41;;;;;;;9.63;3.72;;;;;;;;;;5011227;28;20073;-55
2023/02/01 15:06:27;;;;;;;12.80;3.60;;;;;;;;;;5011032;28;20282;-53
2023/02/01 15:08:58;;;;;;;9.90;3.88;;;;;;;;;;5010993;28;20415;-54
2023/02/01 15:11:26;;;;;;;8.27;3.53;;;;;;;;;;5011059;28;20112;-51
2023/02/01 15:13:55;;;;;;;8.00;4.05;;;;;;;;;;5011319;28;20054;-52
2023/02/01 15:16:24;;;;;;;8.82;4.13;;;;;;;;;;5011238;28;20487;-52
2023/02/01 15:19:07;;;;;;;10.43;4.55;;;;;;;;;;5032330;22;20464;-79
2023/02/01 15:21:44;;;;;;;10.82;3.97;;;;;;;;;;5005734;28;20042;-76
2023/02/01 15:24:12;;;;;;;10.00;3.80;;;;;;;;;;5008986;28;20109;-76
2023/02/01 15:26:40;;;;;;;11.05;4.05;;;;;;;;;;4999142;28;20054;-74
2023/02/01 15:29:12;;;;;;;10.75;4.05;;;;;;;;;;5007666;28;20545;-77
2023/02/01 15:31:42;;;;;;;8.75;4.28;;;;;;;;;;5004230;28;20050;-77